Time,TemperatureF,DewpointF,PressureIn,WindDirection,WindDirectionDegrees,WindSpeedMPH,WindSpeedGustMPH,Humidity,HourlyPrecipIn,Conditions,Clouds,dailyrainin,SoftwareType,DateUTC
2013-02-13 00:05:00,69.3,66.9,29.76,South,180,6.8,-999.0,92,-99.99,,,0.00,Acu-Link.com,2013-02-13 05:05:00,
2013-02-13 00:20:00,69.3,67.2,29.75,SSW,202,4.2,-999.0,93,-99.99,,,0.00,Acu-Link.com,2013-02-13 05:20:00,
2013-02-13 00:35:00,69.4,67.3,29.75,South,180,2.2,-999.0,93,-99.99,,,0.00,Acu-Link.com,2013-02-13 05:35:00,
2013-02-13 00:51:00,69.4,67.3,29.74,NNW,337,4.2,-999.0,93,-99.99,,,0.00,Acu-Link.com,2013-02-13 05:51:00,
2013-02-13 01:06:00,69.1,67.0,29.73,SSE,157,2.7,-999.0,93,-99.99,,,0.00,Acu-Link.com,2013-02-13 06:06:00,
2013-02-13 01:21:00,69.1,67.0,29.74,West,270,2.7,-999.0,93,-99.99,,,0.00,Acu-Link.com,2013-02-13 06:21:00,
2013-02-13 01:36:00,69.3,67.2,29.74,SW,225,4.2,-999.0,93,-99.99,,,0.00,Acu-Link.com,2013-02-13 06:36:00,
2013-02-13 01:51:00,69.3,67.2,29.74,ESE,112,1.1,-999.0,93,-99.99,,,0.00,Acu-Link.com,2013-02-13 06:51:00,
2013-02-13 02:07:00,69.3,67.2,29.73,East,90,2.7,-999.0,93,-99.99,,,0.00,Acu-Link.com,2013-02-13 07:07:00,
2013-02-13 02:22:00,69.4,67.3,29.73,SW,225,4.2,-999.0,93,-99.99,,,0.00,Acu-Link.com,2013-02-13 07:22:00,
2013-02-13 02:37:00,69.4,67.3,29.71,South,180,4.2,-999.0,93,-99.99,,,0.00,Acu-Link.com,2013-02-13 07:37:00,
2013-02-13 02:52:00,69.3,67.5,29.72,SSW,202,2.2,-999.0,94,-99.99,,,0.00,Acu-Link.com,2013-02-13 07:52:00,
2013-02-13 03:07:00,69.3,67.5,29.72,West,270,3.2,-999.0,94,-99.99,,,0.00,Acu-Link.com,2013-02-13 08:07:00,
2013-02-13 03:23:00,69.4,67.6,29.72,NNE,22,7.8,-999.0,94,-99.99,,,0.00,Acu-Link.com,2013-02-13 08:23:00,
2013-02-13 03:38:00,69.6,67.8,29.71,South,180,3.2,-999.0,94,-99.99,,,0.00,Acu-Link.com,2013-02-13 08:38:00,
2013-02-13 03:53:00,69.6,67.8,29.71,South,180,4.7,-999.0,94,-99.99,,,0.00,Acu-Link.com,2013-02-13 08:53:00,
2013-02-13 04:15:00,69.6,67.8,29.70,ESE,112,2.7,-999.0,94,-99.99,,,0.00,Acu-Link.com,2013-02-13 09:15:00,
2013-02-13 04:31:00,69.6,67.8,29.70,WNW,292,5.8,-999.0,94,-99.99,,,0.00,Acu-Link.com,2013-02-13 09:31:00,
2013-02-13 04:46:00,69.6,67.8,29.70,ESE,112,5.3,-999.0,94,-99.99,,,0.00,Acu-Link.com,2013-02-13 09:46:00,
2013-02-13 05:01:00,69.6,67.8,29.70,South,180,4.7,-999.0,94,-99.99,,,0.00,Acu-Link.com,2013-02-13 10:01:00,
2013-02-13 05:16:00,69.8,68.0,29.70,NW,315,5.3,-999.0,94,-99.99,,,0.00,Acu-Link.com,2013-02-13 10:16:00,
2013-02-13 05:31:00,69.8,67.7,29.71,South,180,6.3,-999.0,93,-99.99,,,0.00,Acu-Link.com,2013-02-13 10:31:00,
2013-02-13 05:46:00,69.8,67.7,29.71,NNW,337,2.2,-999.0,93,-99.99,,,0.00,Acu-Link.com,2013-02-13 10:46:00,
2013-02-13 06:01:00,69.8,67.7,29.72,NNE,22,3.2,-999.0,93,-99.99,,,0.00,Acu-Link.com,2013-02-13 11:01:00,
2013-02-13 06:17:00,69.8,67.7,29.72,WSW,247,3.7,-999.0,93,-99.99,,,0.00,Acu-Link.com,2013-02-13 11:17:00,
2013-02-13 06:32:00,69.8,67.7,29.71,WNW,292,3.7,-999.0,93,-99.99,,,0.00,Acu-Link.com,2013-02-13 11:32:00,
2013-02-13 06:47:00,69.8,67.7,29.72,South,180,5.8,-999.0,93,-99.99,,,0.00,Acu-Link.com,2013-02-13 11:47:00,
2013-02-13 07:02:00,69.8,67.7,29.72,NNE,22,4.2,-999.0,93,-99.99,,,0.00,Acu-Link.com,2013-02-13 12:02:00,
2013-02-13 07:18:00,69.6,67.5,29.71,South,180,2.7,-999.0,93,-99.99,,,0.00,Acu-Link.com,2013-02-13 12:18:00,
2013-02-13 07:33:00,69.8,67.7,29.73,SW,225,2.7,-999.0,93,-99.99,,,0.00,Acu-Link.com,2013-02-13 12:33:00,
2013-02-13 07:48:00,70.0,67.9,29.74,West,270,4.7,-999.0,93,-99.99,,,0.00,Acu-Link.com,2013-02-13 12:48:00,
2013-02-13 08:03:00,70.3,67.9,29.73,SW,225,7.8,-999.0,92,-99.99,,,0.00,Acu-Link.com,2013-02-13 13:03:00,
2013-02-13 08:18:00,70.9,68.1,29.73,WNW,292,5.8,-999.0,91,-99.99,,,0.00,Acu-Link.com,2013-02-13 13:18:00,
2013-02-13 08:34:00,71.2,68.1,29.73,WSW,247,2.7,-999.0,90,-99.99,,,0.00,Acu-Link.com,2013-02-13 13:34:00,
2013-02-13 08:49:00,71.6,68.2,29.73,West,270,6.8,-999.0,89,-99.99,,,0.00,Acu-Link.com,2013-02-13 13:49:00,
2013-02-13 09:04:00,72.5,68.7,29.75,SSW,202,3.2,-999.0,88,-99.99,,,0.00,Acu-Link.com,2013-02-13 14:04:00,
2013-02-13 09:19:00,72.5,68.7,29.74,South,180,7.3,-999.0,88,-99.99,,,0.00,Acu-Link.com,2013-02-13 14:19:00,
2013-02-13 09:34:00,72.9,69.1,29.74,NW,315,5.3,-999.0,88,-99.99,,,0.00,Acu-Link.com,2013-02-13 14:34:00,
2013-02-13 09:50:00,74.5,69.7,29.75,SW,225,5.3,-999.0,85,-99.99,,,0.00,Acu-Link.com,2013-02-13 14:50:00,
2013-02-13 10:05:00,75.4,70.2,29.74,WSW,247,3.2,-999.0,84,-99.99,,,0.00,Acu-Link.com,2013-02-13 15:05:00,
2013-02-13 10:20:00,75.9,70.0,29.74,South,180,7.3,-999.0,82,-99.99,,,0.00,Acu-Link.com,2013-02-13 15:20:00,
2013-02-13 10:36:00,77.0,70.0,29.73,West,270,4.7,-999.0,79,-99.99,,,0.00,Acu-Link.com,2013-02-13 15:36:00,
2013-02-13 10:51:00,78.6,70.0,29.74,West,270,3.2,-999.0,75,-99.99,,,0.00,Acu-Link.com,2013-02-13 15:51:00,
2013-02-13 11:06:00,80.1,69.8,29.73,SSW,202,2.7,-999.0,71,-99.99,,,0.00,Acu-Link.com,2013-02-13 16:06:00,
2013-02-13 11:21:00,79.7,69.0,29.72,South,180,7.3,-999.0,70,-99.99,,,0.00,Acu-Link.com,2013-02-13 16:21:00,
2013-02-13 11:36:00,79.2,69.0,29.72,WSW,247,6.3,-999.0,71,-99.99,,,0.00,Acu-Link.com,2013-02-13 16:36:00,
2013-02-13 11:52:00,79.9,68.4,29.70,SSW,202,2.7,-999.0,68,-99.99,,,0.00,Acu-Link.com,2013-02-13 16:52:00,
2013-02-13 12:07:00,83.1,69.2,29.71,West,270,3.7,-999.0,63,-99.99,,,0.00,Acu-Link.com,2013-02-13 17:07:00,
2013-02-13 12:22:00,81.9,68.5,29.70,NNE,22,6.3,-999.0,64,-99.99,,,0.00,Acu-Link.com,2013-02-13 17:22:00,
2013-02-13 12:37:00,80.8,68.4,29.68,ESE,112,2.7,-999.0,66,-99.99,,,0.00,Acu-Link.com,2013-02-13 17:37:00,
2013-02-13 12:52:00,81.3,68.8,29.69,WNW,292,2.7,-999.0,66,-99.99,,,0.00,Acu-Link.com,2013-02-13 17:52:00,
2013-02-13 13:08:00,81.7,67.9,29.67,West,270,5.3,-999.0,63,-99.99,,,0.00,Acu-Link.com,2013-02-13 18:08:00,
2013-02-13 13:23:00,78.4,66.9,29.68,West,270,7.8,-999.0,68,-99.99,,,0.00,Acu-Link.com,2013-02-13 18:23:00,
2013-02-13 13:38:00,75.0,68.0,29.68,WSW,247,4.2,-999.0,79,-99.99,,,0.00,Acu-Link.com,2013-02-13 18:38:00,
2013-02-13 13:53:00,73.6,68.1,29.65,West,270,5.3,-999.0,83,-99.99,,,0.00,Acu-Link.com,2013-02-13 18:53:00,
2013-02-13 14:09:00,73.9,66.2,29.66,West,270,5.3,-999.0,77,-99.99,,,0.00,Acu-Link.com,2013-02-13 19:09:00,
2013-02-13 14:24:00,73.8,66.5,29.66,West,270,6.3,-999.0,78,-99.99,,,0.00,Acu-Link.com,2013-02-13 19:24:00,
2013-02-13 14:39:00,73.9,66.6,29.65,West,270,5.3,-999.0,78,-99.99,,,0.00,Acu-Link.com,2013-02-13 19:39:00,
2013-02-13 14:54:00,74.3,67.4,29.66,West,270,6.3,-999.0,79,-99.99,,,0.00,Acu-Link.com,2013-02-13 19:54:00,
2013-02-13 15:09:00,71.4,68.0,29.66,West,270,6.8,-999.0,89,-99.99,,,0.01,Acu-Link.com,2013-02-13 20:09:00,
2013-02-13 15:25:00,69.8,67.7,29.65,SW,225,4.2,-999.0,93,-99.99,,,0.09,Acu-Link.com,2013-02-13 20:25:00,
2013-02-13 15:40:00,69.8,67.7,29.66,SW,225,6.3,-999.0,93,-99.99,,,0.15,Acu-Link.com,2013-02-13 20:40:00,
2013-02-13 15:55:00,70.3,68.5,29.65,West,270,2.2,-999.0,94,-99.99,,,0.15,Acu-Link.com,2013-02-13 20:55:00,
2013-02-13 16:10:00,70.9,68.8,29.65,West,270,3.7,-999.0,93,-99.99,,,0.15,Acu-Link.com,2013-02-13 21:10:00,
2013-02-13 16:25:00,70.9,68.8,29.65,West,270,3.2,-999.0,93,-99.99,,,0.15,Acu-Link.com,2013-02-13 21:25:00,
2013-02-13 16:41:00,70.7,68.6,29.67,West,270,5.3,-999.0,93,-99.99,,,0.15,Acu-Link.com,2013-02-13 21:41:00,
2013-02-13 16:56:00,70.5,68.7,29.67,WNW,292,2.2,-999.0,94,-99.99,,,0.15,Acu-Link.com,2013-02-13 21:56:00,
2013-02-13 17:11:00,70.3,68.5,29.67,WSW,247,5.3,-999.0,94,-99.99,,,0.15,Acu-Link.com,2013-02-13 22:11:00,
2013-02-13 17:26:00,70.2,68.7,29.67,West,270,3.7,-999.0,95,-99.99,,,0.16,Acu-Link.com,2013-02-13 22:26:00,
2013-02-13 17:42:00,70.0,68.8,29.67,WNW,292,2.7,-999.0,96,-99.99,,,0.16,Acu-Link.com,2013-02-13 22:42:00,
2013-02-13 17:57:00,69.8,68.6,29.69,West,270,4.2,-999.0,96,-99.99,,,0.18,Acu-Link.com,2013-02-13 22:57:00,
2013-02-13 18:12:00,67.1,63.4,29.68,NW,315,8.3,-999.0,88,-99.99,,,0.19,Acu-Link.com,2013-02-13 23:12:00,
2013-02-13 18:27:00,66.2,63.5,29.69,WNW,292,7.8,-999.0,91,-99.99,,,0.19,Acu-Link.com,2013-02-13 23:27:00,
2013-02-13 18:42:00,65.8,63.4,29.70,NW,315,4.7,-999.0,92,-99.99,,,0.19,Acu-Link.com,2013-02-13 23:42:00,
2013-02-13 18:58:00,65.8,64.0,29.70,NNW,337,3.7,-999.0,94,-99.99,,,0.19,Acu-Link.com,2013-02-13 23:58:00,
2013-02-13 19:13:00,65.8,63.4,29.69,WNW,292,5.3,-999.0,92,-99.99,,,0.19,Acu-Link.com,2013-02-14 00:13:00,
2013-02-13 19:28:00,65.7,63.3,29.71,NW,315,0.0,-999.0,92,-99.99,,,0.19,Acu-Link.com,2013-02-14 00:28:00,
2013-02-13 19:43:00,65.5,63.1,29.71,West,270,0.0,-999.0,92,-99.99,,,0.19,Acu-Link.com,2013-02-14 00:43:00,
2013-02-13 19:58:00,65.5,63.4,29.72,West,270,2.2,-999.0,93,-99.99,,,0.19,Acu-Link.com,2013-02-14 00:58:00,
2013-02-13 20:14:00,65.5,63.4,29.73,SSW,202,1.1,-999.0,93,-99.99,,,0.19,Acu-Link.com,2013-02-14 01:14:00,
2013-02-13 20:29:00,65.3,63.2,29.75,West,270,7.3,-999.0,93,-99.99,,,0.19,Acu-Link.com,2013-02-14 01:29:00,
2013-02-13 20:44:00,63.3,60.0,29.76,West,270,1.7,-999.0,89,-99.99,,,0.26,Acu-Link.com,2013-02-14 01:44:00,
2013-02-13 20:59:00,62.8,60.7,29.76,West,270,1.7,-999.0,93,-99.99,,,0.32,Acu-Link.com,2013-02-14 01:59:00,
2013-02-13 21:14:00,61.9,59.9,29.76,West,270,1.7,-999.0,93,-99.99,,,0.34,Acu-Link.com,2013-02-14 02:14:00,
2013-02-13 21:30:00,61.9,60.5,29.77,WNW,292,3.2,-999.0,95,-99.99,,,0.34,Acu-Link.com,2013-02-14 02:30:00,
2013-02-13 21:45:00,62.8,60.4,29.76,WSW,247,0.0,-999.0,92,-99.99,,,0.34,Acu-Link.com,2013-02-14 02:45:00,
2013-02-13 22:00:00,63.1,60.7,29.76,West,270,2.7,-999.0,92,-99.99,,,0.34,Acu-Link.com,2013-02-14 03:00:00,
2013-02-13 22:15:00,63.1,60.7,29.78,West,270,2.2,-999.0,92,-99.99,,,0.34,Acu-Link.com,2013-02-14 03:15:00,
2013-02-13 22:31:00,63.1,61.0,29.76,SW,225,0.0,-999.0,93,-99.99,,,0.35,Acu-Link.com,2013-02-14 03:31:00,
2013-02-13 22:46:00,63.0,61.2,29.77,West,270,0.0,-999.0,94,-99.99,,,0.35,Acu-Link.com,2013-02-14 03:46:00,
2013-02-13 23:01:00,62.8,61.0,29.78,West,270,1.7,-999.0,94,-99.99,,,0.35,Acu-Link.com,2013-02-14 04:01:00,
2013-02-13 23:16:00,62.8,61.3,29.78,West,270,0.0,-999.0,95,-99.99,,,0.35,Acu-Link.com,2013-02-14 04:16:00,
2013-02-13 23:31:00,62.8,61.3,29.78,WSW,247,0.0,-999.0,95,-99.99,,,0.35,Acu-Link.com,2013-02-14 04:31:00,
2013-02-13 23:46:00,63.1,61.6,29.78,West,270,0.0,-999.0,95,-99.99,,,0.35,Acu-Link.com,2013-02-14 04:46:00,